Time;durP1;ratioP1;P1;durP2;ratioP2;P2;SDS_P1;SDS_P2;PMS_P1;PMS_P2;Temp;Humidity;BMP_temperature;BMP_pressure;BME280_temperature;BME280_humidity;BME280_pressure;Samples;Min_cycle;Max_cycle;Signal;HPM_P1;HPM_P2
2022/12/05 00:01:35;;;;;;;10.82;6.10;;;17.20;1.00;;;;;;4826627;29;20506;-45
2022/12/05 00:04:05;;;;;;;8.98;5.63;;;17.20;1.00;;;;;;4842541;29;20506;-44
2022/12/05 00:06:34;;;;;;;10.27;6.75;;;17.10;1.00;;;;;;4842930;29;20549;-44
2022/12/05 00:09:01;;;;;;;12.50;6.53;;;17.10;1.00;;;;;;4842922;29;20084;-47
2022/12/05 00:11:31;;;;;;;11.27;7.38;;;17.10;1.00;;;;;;4842953;29;20121;-45
2022/12/05 00:13:59;;;;;;;9.55;6.35;;;17.10;1.00;;;;;;4842497;29;20046;-49
2022/12/05 00:16:28;;;;;;;19.45;7.25;;;17.10;1.00;;;;;;4842681;29;20092;-46
2022/12/05 00:18:55;;;;;;;9.45;6.47;;;17.00;1.00;;;;;;4842820;29;20037;-46
2022/12/05 00:21:26;;;;;;;12.15;6.95;;;17.00;1.00;;;;;;4842769;29;20125;-49
2022/12/05 00:23:55;;;;;;;11.18;5.90;;;16.90;1.00;;;;;;4842283;29;20060;-44
2022/12/05 00:26:22;;;;;;;10.68;5.63;;;16.90;1.00;;;;;;4842690;29;20128;-47
2022/12/05 00:28:49;;;;;;;9.05;5.55;;;16.90;1.00;;;;;;4826256;29;20570;-47
2022/12/05 00:31:19;;;;;;;10.50;6.00;;;16.90;1.00;;;;;;4811021;29;20151;-45
2022/12/05 00:33:47;;;;;;;12.18;6.68;;;16.80;1.00;;;;;;4842188;29;20050;-46
2022/12/05 00:36:17;;;;;;;10.75;6.68;;;16.90;1.00;;;;;;4842487;29;20046;-43
2022/12/05 00:38:44;;;;;;;10.15;6.05;;;16.90;1.00;;;;;;4826233;29;20041;-45
2022/12/05 00:41:16;;;;;;;12.30;6.90;;;16.80;1.00;;;;;;4842359;29;20419;-44
2022/12/05 00:43:44;;;;;;;13.13;6.53;;;16.80;1.00;;;;;;4841900;29;20092;-44
2022/12/05 00:46:13;;;;;;;9.77;6.20;;;16.80;1.00;;;;;;4842304;29;20065;-45
2022/12/05 00:48:40;;;;;;;9.80;5.45;;;16.70;1.00;;;;;;4842096;29;20045;-48
2022/12/05 00:51:19;;;;;;;10.43;6.32;;;16.70;1.00;;;;;;4842264;29;20088;-49
2022/12/05 00:53:46;;;;;;;9.95;6.40;;;16.70;1.00;;;;;;4841755;29;20114;-46
2022/12/05 00:56:18;;;;;;;9.85;5.82;;;16.60;1.00;;;;;;4842129;29;20050;-44
2022/12/05 00:58:45;;;;;;;10.75;6.07;;;16.60;1.00;;;;;;4842138;29;20521;-44
2022/12/05 01:01:16;;;;;;;9.77;5.50;;;16.60;1.00;;;;;;4841914;29;20061;-43
2022/12/05 01:03:44;;;;;;;9.15;5.93;;;16.60;1.00;;;;;;4841754;29;20115;-46
2022/12/05 01:06:12;;;;;;;10.27;6.72;;;16.60;1.00;;;;;;4841908;29;20533;-46
2022/12/05 01:08:39;;;;;;;9.98;6.22;;;16.60;1.00;;;;;;4841793;29;20053;-46
2022/12/05 01:11:07;;;;;;;10.60;6.22;;;16.50;1.00;;;;;;4841858;29;20137;-44
2022/12/05 01:13:34;;;;;;;11.23;5.88;;;16.50;1.00;;;;;;4841517;29;20050;-46
2022/12/05 01:16:02;;;;;;;11.38;6.45;;;16.50;1.00;;;;;;4841765;29;20494;-45
2022/12/05 01:18:29;;;;;;;11.52;7.15;;;16.50;1.00;;;;;;4841730;29;20046;-44
2022/12/05 01:20:56;;;;;;;11.27;6.18;;;16.50;1.00;;;;;;4841534;29;20053;-44
2022/12/05 01:23:23;;;;;;;9.73;6.03;;;16.40;1.00;;;;;;4827670;29;20057;-45
2022/12/05 01:25:51;;;;;;;8.90;5.75;;;16.40;1.00;;;;;;4823434;29;20106;-44
2022/12/05 01:28:18;;;;;;;8.35;5.60;;;16.40;1.00;;;;;;4823598;29;20133;-46
2022/12/05 01:30:48;;;;;;;8.80;6.10;;;16.40;1.00;;;;;;4823409;29;20534;-46
2022/12/05 01:33:16;;;;;;;8.75;5.93;;;16.40;1.00;;;;;;4823034;29;20038;-50
2022/12/05 01:35:43;;;;;;;8.75;5.22;;;16.30;1.00;;;;;;4823310;29;20463;-47
2022/12/05 01:38:11;;;;;;;9.05;5.65;;;16.30;1.00;;;;;;4823446;29;20081;-45
2022/12/05 01:40:39;;;;;;;9.75;6.22;;;16.30;1.00;;;;;;4823310;29;20058;-44
2022/12/05 01:43:14;;;;;;;11.55;5.47;;;16.30;1.00;;;;;;4822924;29;20107;-46
2022/12/05 01:45:43;;;;;;;9.48;5.65;;;16.30;1.00;;;;;;4823226;29;20046;-47
2022/12/05 01:48:18;;;;;;;11.35;6.10;;;16.30;1.00;;;;;;4823262;29;20047;-45
2022/12/05 01:50:47;;;;;;;9.05;5.30;;;16.20;1.00;;;;;;4823161;29;20050;-44
2022/12/05 01:53:14;;;;;;;10.30;6.25;;;16.20;1.00;;;;;;4822939;29;20079;-47
2022/12/05 01:55:42;;;;;;;9.45;6.00;;;16.20;1.00;;;;;;4823014;29;20106;-44
2022/12/05 01:58:10;;;;;;;8.15;5.28;;;16.20;1.00;;;;;;4823151;29;20052;-45
2022/12/05 02:00:40;;;;;;;10.57;6.43;;;16.20;1.00;;;;;;4822763;29;20077;-44
2022/12/05 02:03:11;;;;;;;8.40;5.43;;;16.10;1.00;;;;;;4822902;29;20525;-44
2022/12/05 02:05:38;;;;;;;9.63;5.38;;;16.10;1.00;;;;;;4823096;29;20054;-44
2022/12/05 02:08:08;;;;;;;9.77;5.57;;;16.10;1.00;;;;;;4823085;29;20050;-47
2022/12/05 02:10:40;;;;;;;9.43;5.10;;;16.10;1.00;;;;;;4823003;29;20522;-44
2022/12/05 02:13:30;;;;;;;9.90;6.03;;;16.10;1.00;;;;;;4823166;29;20051;-45
2022/12/05 02:16:23;;;;;;;10.02;5.45;;;16.00;1.00;;;;;;4826536;29;20038;-47
2022/12/05 02:19:47;;;;;;;8.75;5.43;;;16.00;1.00;;;;;;4807278;29;20062;-45
2022/12/05 02:22:51;;;;;;;8.57;5.38;;;16.00;1.00;;;;;;4826353;29;20613;-44
2022/12/05 02:25:27;;;;;;;;;;;16.00;1.00;;;;;;4810484;29;20145;-44
2022/12/05 02:28:41;;;;;;;9.20;5.68;;;16.00;1.00;;;;;;4826469;29;19935;-45
2022/12/05 02:31:11;;;;;;;;;;;16.00;1.00;;;;;;4773488;30;20074;-46
2022/12/05 02:33:49;;;;;;;6.85;4.72;;;15.90;1.00;;;;;;4818988;29;19973;-47
2022/12/05 02:36:22;;;;;;;9.35;5.53;;;15.90;1.00;;;;;;4826201;29;20070;-44
2022/12/05 02:38:55;;;;;;;8.73;4.85;;;15.90;1.00;;;;;;4826177;29;20046;-45
2022/12/05 02:42:14;;;;;;;8.70;4.93;;;15.90;1.00;;;;;;4825983;29;20042;-44
2022/12/05 02:44:47;;;;;;;9.27;5.35;;;15.90;1.00;;;;;;4787603;29;20395;-45
2022/12/05 02:47:17;;;;;;;8.80;5.30;;;15.80;1.00;;;;;;4820114;29;20074;-44
2022/12/05 02:49:44;;;;;;;11.40;6.00;;;15.80;1.00;;;;;;4809690;29;20511;-46
2022/12/05 02:52:13;;;;;;;7.78;4.93;;;15.80;1.00;;;;;;4825718;29;20466;-45
2022/12/05 02:54:43;;;;;;;9.40;5.72;;;15.80;1.00;;;;;;4825569;29;20456;-45
2022/12/05 02:57:12;;;;;;;7.97;5.32;;;15.80;1.00;;;;;;4825685;29;20066;-47
2022/12/05 02:59:39;;;;;;;7.78;4.82;;;15.80;1.00;;;;;;4825706;29;20078;-45
2022/12/05 03:02:08;;;;;;;8.13;4.65;;;15.80;1.00;;;;;;4825599;29;20074;-44
2022/12/05 03:04:35;;;;;;;9.82;5.15;;;15.80;1.00;;;;;;4825576;29;20692;-45
2022/12/05 03:07:07;;;;;;;12.25;5.65;;;15.80;1.00;;;;;;4825594;29;20050;-45
2022/12/05 03:09:37;;;;;;;8.95;4.90;;;15.70;1.00;;;;;;4825718;29;20046;-48
2022/12/05 03:12:23;;;;;;;9.73;5.07;;;15.70;1.00;;;;;;4825453;29;20038;-48
2022/12/05 03:14:59;;;;;;;7.97;4.72;;;15.70;1.00;;;;;;4825397;29;20053;-45
2022/12/05 03:17:31;;;;;;;9.00;5.53;;;15.70;1.00;;;;;;4809193;29;20436;-46
2022/12/05 03:20:13;;;;;;;8.35;5.00;;;15.70;1.00;;;;;;4825467;29;20046;-46
2022/12/05 03:22:45;;;;;;;8.80;4.97;;;15.70;1.00;;;;;;4825027;29;20099;-48
2022/12/05 03:25:13;;;;;;;9.43;5.65;;;15.70;1.00;;;;;;4824099;29;20125;-45
2022/12/05 03:27:52;;;;;;;7.75;4.75;;;15.70;1.00;;;;;;4825327;29;20050;-49
2022/12/05 03:30:22;;;;;;;10.00;5.57;;;15.70;1.00;;;;;;4825264;29;20061;-45
2022/12/05 03:33:15;;;;;;;7.53;4.55;;;15.60;1.00;;;;;;4824862;29;20116;-45
2022/12/05 03:36:05;;;;;;;9.63;5.00;;;15.60;1.00;;;;;;4825078;29;20081;-48
2022/12/05 03:38:46;;;;;;;7.60;4.68;;;15.60;1.00;;;;;;4825122;29;20042;-45
2022/12/05 03:41:24;;;;;;;7.63;4.47;;;15.60;1.00;;;;;;4824961;29;20046;-48
2022/12/05 03:44:06;;;;;;;8.98;5.03;;;15.60;1.00;;;;;;4819354;24;20073;-40
2022/12/05 03:46:39;;;;;;;7.90;5.07;;;15.60;1.00;;;;;;4783113;30;20109;-39
2022/12/05 03:49:38;;;;;;;7.47;4.45;;;15.60;1.00;;;;;;4788919;29;20104;-40
2022/12/05 03:52:12;;;;;;;8.18;4.97;;;15.50;1.00;;;;;;4801039;29;20045;-40
2022/12/05 03:54:48;;;;;;;9.65;4.70;;;15.50;1.00;;;;;;4803444;29;20130;-39
2022/12/05 03:57:29;;;;;;;7.43;4.57;;;15.50;1.00;;;;;;4806351;29;20050;-39
2022/12/05 04:00:09;;;;;;;8.43;5.57;;;15.50;1.00;;;;;;4806826;29;20487;-39
2022/12/05 04:02:51;;;;;;;9.93;5.15;;;15.50;1.00;;;;;;4801041;29;20046;-39
2022/12/05 04:05:26;;;;;;;8.57;5.15;;;15.50;1.00;;;;;;4792038;29;20134;-39
2022/12/05 04:08:02;;;;;;;11.93;4.95;;;15.50;1.00;;;;;;4806676;29;20494;-40
2022/12/05 04:10:47;;;;;;;8.32;4.15;;;15.50;1.00;;;;;;4794772;29;20522;-39
2022/12/05 04:13:52;;;;;;;7.45;3.92;;;15.50;1.00;;;;;;4806206;29;20455;-39
2022/12/05 04:22:32;;;;;;;6.75;4.72;;;15.40;1.00;;;;;;4794824;29;20039;-38
2022/12/05 04:28:12;;;;;;;6.90;4.03;;;15.40;1.00;;;;;;4806238;29;20100;-39
2022/12/05 04:30:57;;;;;;;7.05;4.07;;;15.40;1.00;;;;;;4806224;29;20495;-38
2022/12/05 04:33:39;;;;;;;6.47;4.03;;;15.30;1.00;;;;;;4805827;29;20051;-38
2022/12/05 04:36:16;;;;;;;5.38;3.33;;;15.40;1.00;;;;;;4805566;29;20053;-39
2022/12/05 04:38:56;;;;;;;6.38;3.70;;;15.40;1.00;;;;;;4802038;29;20464;-38
2022/12/05 04:41:27;;;;;;;7.07;4.13;;;15.40;1.00;;;;;;4785627;29;20500;-38
2022/12/05 04:43:58;;;;;;;7.25;3.75;;;15.30;1.00;;;;;;4803855;29;20099;-39
2022/12/05 04:46:24;;;;;;;8.00;4.53;;;15.30;1.00;;;;;;4805886;29;20042;-39
2022/12/05 04:48:54;;;;;;;7.68;3.53;;;15.30;1.00;;;;;;4806086;29;20054;-39
2022/12/05 04:51:27;;;;;;;6.78;4.28;;;15.30;1.00;;;;;;4804567;29;20058;-38
2022/12/05 04:54:01;;;;;;;5.90;3.17;;;15.30;1.00;;;;;;4805457;29;20499;-38
2022/12/05 04:56:33;;;;;;;5.78;3.22;;;15.30;1.00;;;;;;4800023;29;20455;-38
2022/12/05 04:59:00;;;;;;;5.70;3.53;;;15.30;1.00;;;;;;4805631;29;20109;-38
2022/12/05 05:01:36;;;;;;;7.72;3.88;;;15.30;1.00;;;;;;4805694;29;20077;-38
2022/12/05 05:04:20;;;;;;;8.23;3.67;;;15.30;1.00;;;;;;4805336;29;20050;-38
2022/12/05 05:06:47;;;;;;;5.72;3.67;;;15.30;1.00;;;;;;4805672;29;20043;-39
2022/12/05 05:09:13;;;;;;;7.65;3.40;;;15.20;1.00;;;;;;4805544;29;20047;-38
2022/12/05 05:11:40;;;;;;;9.82;3.58;;;15.20;1.00;;;;;;4805399;29;20130;-39
2022/12/05 05:14:07;;;;;;;6.47;3.85;;;15.20;1.00;;;;;;4804996;29;20118;-38
2022/12/05 05:16:37;;;;;;;6.93;3.67;;;15.20;1.00;;;;;;4805510;29;20058;-39
2022/12/05 05:19:05;;;;;;;9.77;3.17;;;15.20;1.00;;;;;;4805448;29;20055;-38
2022/12/05 05:21:40;;;;;;;6.47;3.95;;;15.20;1.00;;;;;;4805297;29;20471;-38
2022/12/05 05:24:10;;;;;;;8.13;4.55;;;15.20;1.00;;;;;;4805009;29;20568;-39
2022/12/05 05:26:39;;;;;;;10.50;3.63;;;15.20;1.00;;;;;;4805228;29;20501;-39
2022/12/05 05:29:06;;;;;;;7.90;3.03;;;15.20;1.00;;;;;;4805312;29;20490;-39
2022/12/05 05:31:33;;;;;;;10.38;3.45;;;15.20;1.00;;;;;;4799081;29;20051;-38
2022/12/05 05:34:00;;;;;;;14.52;4.80;;;15.20;1.00;;;;;;4804992;29;20051;-39
2022/12/05 05:36:35;;;;;;;9.40;3.58;;;15.10;1.00;;;;;;4796444;29;20035;-39
2022/12/05 05:39:04;;;;;;;7.85;3.45;;;15.20;1.00;;;;;;4798221;29;20047;-45
2022/12/05 05:41:35;;;;;;;8.52;2.88;;;15.10;1.00;;;;;;4794588;29;20050;-39
2022/12/05 05:44:02;;;;;;;7.13;3.00;;;15.10;1.00;;;;;;4803308;29;20087;-39
2022/12/05 05:46:31;;;;;;;4.35;2.58;;;15.10;1.00;;;;;;4804313;29;20130;-39
2022/12/05 05:48:59;;;;;;;5.03;3.00;;;15.10;1.00;;;;;;4803407;29;20504;-38
2022/12/05 05:51:28;;;;;;;7.50;2.78;;;15.10;1.00;;;;;;4804185;29;20065;-38
2022/12/05 05:53:55;;;;;;;7.47;3.10;;;15.10;1.00;;;;;;4804009;29;20112;-39
2022/12/05 05:56:22;;;;;;;4.97;3.70;;;15.10;1.00;;;;;;4802905;29;20496;-38
2022/12/05 05:59:01;;;;;;;7.63;3.05;;;15.10;1.00;;;;;;4804185;29;20100;-38
2022/12/05 06:01:28;;;;;;;5.00;2.47;;;15.10;1.00;;;;;;4804260;29;20484;-39
2022/12/05 06:03:55;;;;;;;6.72;3.67;;;15.00;1.00;;;;;;4803746;29;20043;-39
2022/12/05 06:06:24;;;;;;;6.63;3.38;;;15.00;1.00;;;;;;4804248;29;20061;-39
2022/12/05 06:08:51;;;;;;;9.98;3.40;;;15.00;1.00;;;;;;4796145;29;20462;-39
2022/12/05 06:11:24;;;;;;;6.35;2.67;;;15.00;1.00;;;;;;4787497;29;20070;-39
2022/12/05 06:13:59;;;;;;;6.22;2.80;;;15.00;1.00;;;;;;4803385;29;20449;-39
2022/12/05 06:16:27;;;;;;;4.03;2.85;;;15.00;1.00;;;;;;4803713;29;20046;-39
2022/12/05 06:18:53;;;;;;;5.93;2.60;;;15.00;1.00;;;;;;4803857;29;20120;-38
2022/12/05 06:21:21;;;;;;;6.47;2.97;;;15.00;1.00;;;;;;4803821;29;20046;-38
2022/12/05 06:23:49;;;;;;;6.65;2.55;;;15.00;1.00;;;;;;4803563;29;20153;-38
2022/12/05 06:26:18;;;;;;;3.75;2.20;;;15.00;1.00;;;;;;4803926;29;20074;-38
2022/12/05 06:28:46;;;;;;;6.13;2.25;;;15.00;1.00;;;;;;4803978;29;20079;-39
2022/12/05 06:31:18;;;;;;;4.40;2.25;;;15.00;1.00;;;;;;4804208;29;20053;-38
2022/12/05 06:33:46;;;;;;;4.55;2.40;;;15.00;1.00;;;;;;4803062;29;20138;-38
2022/12/05 06:36:15;;;;;;;5.13;3.00;;;14.90;1.00;;;;;;4804738;29;20129;-39
2022/12/05 06:38:42;;;;;;;5.00;2.63;;;14.90;1.00;;;;;;4802567;29;20426;-39
2022/12/05 06:41:12;;;;;;;4.18;2.40;;;14.90;1.00;;;;;;4803752;29;20085;-39
2022/12/05 06:43:39;;;;;;;8.75;2.47;;;14.90;1.00;;;;;;4768914;29;1043799;-39
2022/12/05 06:46:08;;;;;;;8.35;3.25;;;14.90;1.00;;;;;;4804731;29;20050;-39
2022/12/05 06:48:35;;;;;;;3.97;2.25;;;14.90;1.00;;;;;;4804516;29;20134;-39
2022/12/05 06:51:02;;;;;;;6.20;2.72;;;14.90;1.00;;;;;;4804560;29;20419;-42
2022/12/05 06:53:29;;;;;;;6.53;2.45;;;14.90;1.00;;;;;;4804232;29;20587;-39
2022/12/05 06:56:04;;;;;;;6.85;2.83;;;14.90;1.00;;;;;;4804409;29;20102;-39
2022/12/05 06:58:31;;;;;;;6.20;2.65;;;14.90;1.00;;;;;;4803217;29;20761;-39
2022/12/05 07:03:43;;;;;;;6.90;2.78;;;14.80;1.00;;;;;;4807327;29;20107;-38
2022/12/05 07:06:10;;;;;;;5.68;2.42;;;14.80;1.00;;;;;;4807662;29;20063;-39
2022/12/05 07:08:37;;;;;;;6.93;2.67;;;14.80;1.00;;;;;;4807420;29;20050;-38
2022/12/05 07:11:04;;;;;;;4.38;2.63;;;14.80;1.00;;;;;;4807639;29;20108;-38
2022/12/05 07:13:31;;;;;;;5.32;2.35;;;14.90;1.00;;;;;;4807289;29;20466;-39
2022/12/05 07:15:58;;;;;;;7.10;3.13;;;14.90;1.00;;;;;;4807410;29;20183;-39
2022/12/05 07:18:26;;;;;;;3.25;1.75;;;15.00;1.00;;;;;;4807633;29;20045;-38
2022/12/05 07:21:01;;;;;;;5.07;2.50;;;15.00;1.00;;;;;;4807408;29;20487;-38
2022/12/05 07:23:45;;;;;;;5.35;1.92;;;15.10;1.00;;;;;;4807126;29;20057;-38
2022/12/05 07:26:18;;;;;;;2.95;1.90;;;15.20;1.00;;;;;;4807338;29;20051;-39
2022/12/05 07:28:45;;;;;;;3.60;2.10;;;15.30;1.00;;;;;;4807373;29;20050;-39
2022/12/05 07:31:21;;;;;;;6.25;1.88;;;15.40;1.00;;;;;;4807262;29;20057;-39
2022/12/05 07:33:48;;;;;;;3.20;1.80;;;15.50;1.00;;;;;;4806726;29;20050;-39
2022/12/05 07:36:18;;;;;;;3.95;1.85;;;15.60;1.00;;;;;;4806977;29;20051;-39
2022/12/05 07:38:45;;;;;;;8.75;2.05;;;15.60;1.00;;;;;;4807431;29;20083;-39
2022/12/05 07:41:20;;;;;;;5.30;2.38;;;15.70;1.00;;;;;;4807204;29;20081;-39
2022/12/05 07:43:49;;;;;;;4.55;2.20;;;15.80;1.00;;;;;;4806629;29;20100;-39
2022/12/05 07:46:16;;;;;;;2.85;2.03;;;15.80;1.00;;;;;;4805390;29;20099;-39
2022/12/05 07:48:43;;;;;;;5.43;2.15;;;15.80;1.00;;;;;;4807029;29;20112;-39
2022/12/05 07:51:10;;;;;;;2.60;1.52;;;15.90;1.00;;;;;;4806745;29;20126;-39
2022/12/05 07:53:38;;;;;;;3.17;1.88;;;15.90;1.00;;;;;;4806254;29;20492;-38
2022/12/05 07:56:07;;;;;;;3.65;2.15;;;15.90;1.00;;;;;;4806513;29;20054;-39
2022/12/05 07:58:34;;;;;;;4.13;1.80;;;16.00;1.00;;;;;;4805280;29;20126;-39
2022/12/05 08:01:13;;;;;;;5.63;2.70;;;15.90;1.00;;;;;;4801695;29;20070;-38
2022/12/05 08:03:42;;;;;;;3.85;2.22;;;15.90;1.00;;;;;;4801239;29;20465;-38
2022/12/05 08:06:14;;;;;;;6.10;1.92;;;15.90;1.00;;;;;;4806312;29;20427;-39
2022/12/05 08:08:41;;;;;;;4.30;2.10;;;16.00;1.00;;;;;;4806613;29;20074;-39
2022/12/05 08:11:14;;;;;;;5.05;1.95;;;15.90;1.00;;;;;;4805872;29;20138;-38
2022/12/05 08:13:41;;;;;;;4.22;2.33;;;16.00;1.00;;;;;;4806063;29;20054;-38
2022/12/05 08:16:17;;;;;;;6.35;1.80;;;16.00;1.00;;;;;;4806443;29;20046;-38
2022/12/05 08:18:45;;;;;;;3.20;1.88;;;16.00;1.00;;;;;;4806436;29;20050;-39
2022/12/05 08:21:14;;;;;;;3.90;2.15;;;16.00;1.00;;;;;;4806353;29;20043;-39
2022/12/05 08:23:42;;;;;;;4.32;2.50;;;15.90;1.00;;;;;;4805787;29;20139;-39
2022/12/05 08:26:11;;;;;;;6.32;1.95;;;15.90;1.00;;;;;;4806344;29;20057;-39
2022/12/05 08:28:38;;;;;;;7.15;2.92;;;16.00;1.00;;;;;;4806264;29;20403;-40
2022/12/05 08:31:14;;;;;;;2.20;1.50;;;15.90;1.00;;;;;;4805073;29;20408;-39
2022/12/05 08:33:41;;;;;;;4.05;2.22;;;15.90;1.00;;;;;;4805869;29;20043;-38
2022/12/05 08:36:12;;;;;;;7.18;2.22;;;15.90;1.00;;;;;;4804762;29;20121;-39
2022/12/05 08:38:38;;;;;;;5.35;1.98;;;15.90;1.00;;;;;;4806027;29;20054;-39
2022/12/05 08:41:09;;;;;;;7.78;2.20;;;15.80;1.00;;;;;;4805944;29;20085;-38
2022/12/05 08:43:35;;;;;;;4.38;1.50;;;15.80;1.00;;;;;;4805602;29;20081;-39
2022/12/05 08:46:02;;;;;;;5.35;1.75;;;15.80;1.00;;;;;;4806091;29;20107;-39
2022/12/05 08:48:31;;;;;;;5.07;2.20;;;15.80;1.00;;;;;;4805974;29;20055;-38
2022/12/05 08:50:59;;;;;;;3.78;2.13;;;15.80;1.00;;;;;;4805743;29;20085;-38
2022/12/05 08:53:25;;;;;;;4.78;2.00;;;15.80;1.00;;;;;;4805452;29;20051;-38
2022/12/05 08:55:52;;;;;;;3.40;1.63;;;15.80;1.00;;;;;;4805632;29;20042;-39
2022/12/05 08:58:19;;;;;;;3.42;1.75;;;15.70;1.00;;;;;;4805704;29;20046;-39
2022/12/05 09:00:45;;;;;;;5.30;1.98;;;15.70;1.00;;;;;;4805615;29;20393;-39
2022/12/05 09:03:12;;;;;;;6.60;2.05;;;15.70;1.00;;;;;;4805275;29;20053;-40
2022/12/05 09:05:39;;;;;;;3.85;1.88;;;15.70;1.00;;;;;;4805502;29;20125;-40
2022/12/05 09:08:06;;;;;;;3.40;1.77;;;15.70;1.00;;;;;;4805516;29;20057;-40
2022/12/05 09:10:32;;;;;;;4.90;2.20;;;15.70;1.00;;;;;;4805639;29;20404;-39
2022/12/05 09:12:59;;;;;;;3.15;2.08;;;15.70;1.00;;;;;;4805172;29;20066;-39
2022/12/05 09:15:26;;;;;;;5.80;1.77;;;15.70;1.00;;;;;;4805351;29;20085;-40
2022/12/05 09:17:53;;;;;;;4.32;2.50;;;15.60;1.00;;;;;;4805299;29;20499;-40
2022/12/05 09:20:21;;;;;;;5.78;1.92;;;15.60;1.00;;;;;;4805353;29;20075;-39
2022/12/05 09:22:48;;;;;;;4.55;2.05;;;15.60;1.00;;;;;;4803943;29;20067;-39
2022/12/05 09:25:14;;;;;;;4.05;2.13;;;15.60;1.00;;;;;;4805288;29;20053;-39
2022/12/05 09:27:41;;;;;;;7.90;2.63;;;15.60;1.00;;;;;;4805469;29;20129;-40
2022/12/05 09:30:09;;;;;;;4.68;1.90;;;15.60;1.00;;;;;;4805097;29;20572;-40
2022/12/05 09:32:36;;;;;;;4.13;1.75;;;15.50;1.00;;;;;;4804851;29;20404;-39
2022/12/05 09:35:03;;;;;;;3.97;2.10;;;15.50;1.00;;;;;;4805007;29;20388;-40
2022/12/05 09:37:30;;;;;;;4.22;2.22;;;15.50;1.00;;;;;;4805291;29;20066;-39
2022/12/05 09:40:06;;;;;;;4.82;1.85;;;15.50;1.00;;;;;;4805052;29;20043;-39
2022/12/05 09:43:00;;;;;;;5.05;2.13;;;15.50;1.00;;;;;;4804784;29;20057;-39
2022/12/05 09:45:36;;;;;;;3.03;1.83;;;15.50;1.00;;;;;;4804947;29;20349;-39
2022/12/05 09:48:19;;;;;;;8.15;2.92;;;15.50;1.00;;;;;;4805147;29;20051;-38
2022/12/05 09:50:54;;;;;;;;;;;15.40;1.00;;;;;;4805447;29;20478;-39
2022/12/05 09:53:39;;;;;;;3.10;1.30;;;15.40;1.00;;;;;;4804465;29;19929;-38
2022/12/05 09:56:25;;;;;;;4.80;2.30;;;15.40;1.00;;;;;;4804857;29;20487;-38
2022/12/05 09:58:54;;;;;;;3.83;1.80;;;15.40;1.00;;;;;;4804915;29;20080;-38
2022/12/05 10:01:48;;;;;;;4.32;1.80;;;15.40;1.00;;;;;;4804848;29;20054;-38
2022/12/05 10:04:24;;;;;;;3.63;1.77;;;15.40;1.00;;;;;;4804428;29;20047;-39
2022/12/05 10:06:53;;;;;;;4.13;1.50;;;15.40;1.00;;;;;;4804927;29;20545;-39
2022/12/05 10:09:37;;;;;;;3.60;2.28;;;15.40;1.00;;;;;;4804641;29;20047;-38
2022/12/05 10:12:40;;;;;;;2.92;1.92;;;15.30;1.00;;;;;;4804689;29;20047;-39
2022/12/05 10:15:09;;;;;;;4.32;1.85;;;15.30;1.00;;;;;;4804662;29;20123;-39
2022/12/05 10:17:39;;;;;;;2.97;1.67;;;15.30;1.00;;;;;;4804616;29;20093;-39
2022/12/05 10:20:24;;;;;;;3.85;1.73;;;15.30;1.00;;;;;;4804631;29;20051;-39
2022/12/05 10:22:58;;;;;;;4.13;1.92;;;15.30;1.00;;;;;;4804379;29;20568;-38
2022/12/05 10:25:27;;;;;;;3.05;1.70;;;15.30;1.00;;;;;;4804597;29;20500;-39
2022/12/05 10:28:01;;;;;;;3.20;1.70;;;15.30;1.00;;;;;;4804590;29;20047;-38
2022/12/05 10:30:31;;;;;;;2.88;1.35;;;15.30;1.00;;;;;;4804445;29;20122;-39
2022/12/05 10:33:01;;;;;;;3.15;1.63;;;15.20;1.00;;;;;;4804201;29;20134;-38
2022/12/05 10:35:37;;;;;;;4.13;1.77;;;15.20;1.00;;;;;;4807198;29;20055;-39
2022/12/05 10:38:09;;;;;;;4.00;1.63;;;15.20;1.00;;;;;;4808065;29;20117;-38
2022/12/05 10:40:38;;;;;;;3.20;1.90;;;15.20;1.00;;;;;;4808091;29;20496;-39
2022/12/05 10:43:07;;;;;;;3.17;2.08;;;15.20;1.00;;;;;;4807637;29;20142;-39
2022/12/05 10:45:45;;;;;;;3.85;1.55;;;15.20;1.00;;;;;;4807760;29;20054;-40
2022/12/05 10:48:15;;;;;;;5.63;1.83;;;15.20;1.00;;;;;;4806909;29;20194;-39
2022/12/05 10:50:47;;;;;;;3.90;2.17;;;15.20;1.00;;;;;;4808092;29;20495;-39
2022/12/05 10:53:23;;;;;;;3.05;1.70;;;15.10;1.00;;;;;;4807678;29;20043;-39
2022/12/05 10:55:50;;;;;;;4.32;1.58;;;15.10;1.00;;;;;;4807581;29;20081;-37
2022/12/05 10:58:37;;;;;;;4.72;1.98;;;15.10;1.00;;;;;;4807799;29;20070;-38
2022/12/05 11:01:12;;;;;;;7.57;2.10;;;15.10;1.00;;;;;;4807877;29;20047;-39
2022/12/05 11:03:42;;;;;;;3.55;1.40;;;15.10;1.00;;;;;;4807254;29;20444;-39
2022/12/05 11:06:27;;;;;;;5.05;1.90;;;15.10;1.00;;;;;;4807718;29;20051;-39
2022/12/05 11:09:16;;;;;;;2.75;1.80;;;15.10;1.00;;;;;;4807499;29;20120;-38
2022/12/05 11:12:01;;;;;;;3.58;1.50;;;15.10;1.00;;;;;;4807676;29;20057;-38
2022/12/05 11:14:28;;;;;;;3.25;1.30;;;15.10;1.00;;;;;;4807330;29;20046;-38
2022/12/05 11:16:58;;;;;;;3.70;1.85;;;15.00;1.00;;;;;;4807431;29;20047;-39
2022/12/05 11:19:32;;;;;;;7.53;1.95;;;15.10;1.00;;;;;;4807311;29;20054;-39
2022/12/05 11:22:00;;;;;;;4.30;1.55;;;15.00;1.00;;;;;;4807607;29;20043;-39
2022/12/05 11:24:37;;;;;;;5.47;2.20;;;15.00;1.00;;;;;;4807012;29;20057;-38
2022/12/05 11:27:31;;;;;;;7.57;1.73;;;15.00;1.00;;;;;;4807281;29;20154;-39
2022/12/05 11:29:57;;;;;;;;;;;15.00;1.00;;;;;;4806268;29;20150;-39
2022/12/05 11:32:28;;;;;;;3.20;2.42;;;15.00;1.00;;;;;;4807021;29;19990;-39
2022/12/05 11:35:07;;;;;;;6.03;1.58;;;15.00;1.00;;;;;;4807101;29;20459;-38
2022/12/05 11:37:43;;;;;;;4.00;1.80;;;15.00;1.00;;;;;;4807282;29;20047;-39
2022/12/05 11:40:15;;;;;;;3.65;1.77;;;15.00;1.00;;;;;;4807036;29;20122;-38
2022/12/05 11:43:01;;;;;;;3.40;1.50;;;15.00;1.00;;;;;;4806787;29;20047;-38
2022/12/05 11:45:46;;;;;;;4.25;1.65;;;15.00;1.00;;;;;;4806222;29;20130;-39
2022/12/05 11:48:22;;;;;;;3.63;1.20;;;15.10;1.00;;;;;;4806974;29;20055;-39
2022/12/05 11:51:10;;;;;;;3.88;1.60;;;15.20;1.00;;;;;;4806912;29;20055;-39
2022/12/05 11:53:59;;;;;;;3.75;1.35;;;15.30;1.00;;;;;;4806375;29;20513;-39
2022/12/05 11:56:45;;;;;;;4.80;2.50;;;15.40;1.00;;;;;;4806668;29;20054;-39
2022/12/05 11:59:29;;;;;;;4.40;1.52;;;15.50;1.00;;;;;;4806755;29;20050;-39
2022/12/05 12:02:23;;;;;;;;;;;15.60;1.00;;;;;;4807174;29;20126;-39
2022/12/05 12:04:53;;;;;;;2.97;1.60;;;15.60;1.00;;;;;;4805238;29;20355;-39
2022/12/05 12:07:42;;;;;;;4.50;1.65;;;15.70;1.00;;;;;;4806774;29;20115;-39
2022/12/05 12:10:24;;;;;;;2.55;1.25;;;15.80;1.00;;;;;;4806510;29;20058;-39
2022/12/05 12:13:02;;;;;;;1.92;1.15;;;15.80;1.00;;;;;;4806117;29;20058;-39
2022/12/05 12:15:50;;;;;;;3.30;1.35;;;15.80;1.00;;;;;;4806479;29;20239;-38
2022/12/05 12:18:44;;;;;;;4.15;1.95;;;15.90;1.00;;;;;;4806490;29;20083;-39
2022/12/05 12:21:28;;;;;;;4.45;1.50;;;15.90;1.00;;;;;;4806332;29;20039;-39
2022/12/05 12:24:08;;;;;;;3.05;1.60;;;16.00;1.00;;;;;;4805924;29;20107;-39
2022/12/05 12:26:44;;;;;;;3.22;1.50;;;16.00;1.00;;;;;;4806387;29;20546;-39
2022/12/05 12:29:41;;;;;;;4.18;1.80;;;16.00;1.00;;;;;;4806285;29;20058;-39
2022/12/05 12:32:49;;;;;;;6.55;1.73;;;16.00;1.00;;;;;;4806404;29;20057;-39
2022/12/05 12:35:16;;;;;;;4.65;1.90;;;16.00;1.00;;;;;;4804359;29;20094;-40
2022/12/05 12:37:56;;;;;;;6.15;1.80;;;16.10;1.00;;;;;;4806139;29;20054;-39
2022/12/05 12:40:39;;;;;;;4.15;1.60;;;16.10;1.00;;;;;;4806042;29;20047;-39
2022/12/05 12:43:23;;;;;;;3.83;1.73;;;16.00;1.00;;;;;;4805818;29;20067;-39
2022/12/05 12:46:18;;;;;;;3.22;1.70;;;16.00;1.00;;;;;;4805783;29;20107;-39
2022/12/05 12:49:12;;;;;;;5.68;1.40;;;16.10;1.00;;;;;;4805954;29;20473;-39
2022/12/05 12:52:01;;;;;;;6.20;2.92;;;16.00;1.00;;;;;;4805930;29;20050;-39
2022/12/05 12:55:01;;;;;;;2.42;1.20;;;16.00;1.00;;;;;;4805137;29;20076;-39
2022/12/05 12:57:50;;;;;;;3.28;1.60;;;16.00;1.00;;;;;;4805042;29;20453;-38
2022/12/05 13:00:32;;;;;;;5.13;1.60;;;16.00;1.00;;;;;;4805354;29;20392;-39
2022/12/05 13:03:05;;;;;;;2.72;1.67;;;16.00;1.00;;;;;;4805237;29;20047;-39
2022/12/05 13:05:48;;;;;;;3.93;1.60;;;16.00;1.00;;;;;;4805517;29;20063;-38
2022/12/05 13:08:25;;;;;;;3.03;1.58;;;16.00;1.00;;;;;;4805588;29;20078;-38
2022/12/05 13:10:52;;;;;;;3.58;1.60;;;16.00;1.00;;;;;;4805547;29;20461;-38
2022/12/05 13:13:35;;;;;;;4.60;1.95;;;16.00;1.00;;;;;;4805111;29;20057;-38
2022/12/05 13:16:06;;;;;;;3.60;1.57;;;15.90;1.00;;;;;;4805404;29;20047;-38
2022/12/05 13:18:33;;;;;;;5.72;1.83;;;15.90;1.00;;;;;;4805535;29;20039;-38
2022/12/05 13:21:05;;;;;;;4.47;2.13;;;15.90;1.00;;;;;;4805381;29;20051;-38
2022/12/05 13:23:37;;;;;;;3.80;1.52;;;15.90;1.00;;;;;;4804941;29;20046;-38
2022/12/05 13:26:08;;;;;;;4.32;1.63;;;15.90;1.00;;;;;;4805392;29;20070;-39
2022/12/05 13:28:52;;;;;;;3.85;1.52;;;15.90;1.00;;;;;;4805258;29;20107;-38
2022/12/05 13:31:18;;;;;;;;;;;15.80;1.00;;;;;;4805772;29;20495;-39
2022/12/05 13:33:48;;;;;;;3.85;1.92;;;15.80;1.00;;;;;;4804818;29;20316;-39
2022/12/05 13:42:14;;;;;;;4.43;1.85;;;15.80;1.00;;;;;;4805023;29;20043;-38
2022/12/05 13:44:46;;;;;;;2.70;1.73;;;15.70;1.00;;;;;;4804589;29;20130;-40
2022/12/05 13:47:57;;;;;;;5.40;1.65;;;15.70;1.00;;;;;;4805118;29;20043;-39
2022/12/05 13:50:30;;;;;;;3.78;1.80;;;15.70;1.00;;;;;;4794804;29;20710;-39